Terminal Aerodrome Forecast
Issued by NWS

Home | Current Version | Previous Version | Text Only | Print | Product List | Glossary On
Versions: 1 2 3 4 5 6 7 8 9 10 11 12
000
FTUS46 KMTR 161734
TAFSNS
TAF
KSNS 161734Z 1618/1718 10012KT P6SM SKC
     FM162000 12007KT P6SM SKC
     FM162200 29005KT P6SM FEW200
     FM170400 12004KT P6SM SKC
     FM170700 12011KT P6SM SKC=

USA.gov is the U.S. government's official web portal to all federal, state and local government web resources and services.